createdAt,value
2022-08-26T00:01:42.188Z,3.88
2022-08-26T00:04:12.472Z,4.10
2022-08-26T00:06:42.451Z,4.18
2022-08-26T00:09:13.240Z,4.07
2022-08-26T00:11:43.172Z,3.53
2022-08-26T00:14:09.915Z,3.83
2022-08-26T00:16:40.883Z,4.30
2022-08-26T00:19:07.955Z,4.22
2022-08-26T00:21:35.188Z,4.05
2022-08-26T00:24:04.702Z,3.70
2022-08-26T00:26:33.663Z,4.13
2022-08-26T00:29:00.474Z,3.75
2022-08-26T00:31:27.311Z,3.80
2022-08-26T00:33:54.104Z,3.72
2022-08-26T00:36:22.754Z,3.60
2022-08-26T00:38:49.852Z,4.07
2022-08-26T00:41:19.703Z,3.50
2022-08-26T00:43:47.314Z,3.40
2022-08-26T00:46:19.813Z,4.00
2022-08-26T00:48:51.288Z,4.00
2022-08-26T00:51:29.597Z,4.13
2022-08-26T00:54:10.680Z,3.80
2022-08-26T00:57:15.905Z,3.95
2022-08-26T00:59:51.441Z,4.18
2022-08-26T01:02:18.112Z,3.60
2022-08-26T01:04:48.369Z,3.95
2022-08-26T01:07:21.794Z,3.70
2022-08-26T01:09:48.722Z,3.80
2022-08-26T01:12:15.885Z,4.05
2022-08-26T01:14:49.533Z,3.72
2022-08-26T01:17:16.331Z,3.70
2022-08-26T01:20:24.110Z,3.90
2022-08-26T01:22:58.406Z,4.07
2022-08-26T01:25:33.306Z,3.92
2022-08-26T01:28:03.909Z,4.05
2022-08-26T01:30:31.443Z,3.40
2022-08-26T01:33:01.338Z,4.10
2022-08-26T01:35:29.389Z,4.32
2022-08-26T01:37:56.532Z,3.70
2022-08-26T01:40:32.103Z,4.03
2022-08-26T01:43:01.502Z,3.85
2022-08-26T01:45:33.293Z,3.90
2022-08-26T01:48:03.534Z,3.88
2022-08-26T01:50:33.553Z,3.75
2022-08-26T01:53:05.993Z,4.63
2022-08-26T01:55:34.519Z,4.18
2022-08-26T01:58:05.503Z,4.28
2022-08-26T02:00:34.144Z,4.13
2022-08-26T02:03:21.583Z,4.10
2022-08-26T02:05:53.033Z,4.30
2022-08-26T02:08:25.495Z,3.67
2022-08-26T02:10:54.886Z,4.47
2022-08-26T02:13:22.969Z,3.83
2022-08-26T02:15:52.265Z,3.55
2022-08-26T02:18:19.424Z,3.90
2022-08-26T02:20:46.286Z,3.80
2022-08-26T02:23:15.259Z,3.50
2022-08-26T02:25:51.564Z,4.20
2022-08-26T02:28:19.795Z,3.92
2022-08-26T02:30:47.470Z,4.65
2022-08-26T02:33:17.447Z,4.20
2022-08-26T02:35:46.231Z,4.28
2022-08-26T02:38:15.704Z,4.60
2022-08-26T02:40:43.884Z,4.53
2022-08-26T02:43:12.551Z,4.93
2022-08-26T02:45:40.353Z,4.20
2022-08-26T02:48:15.289Z,4.55
2022-08-26T02:50:42.538Z,4.13
2022-08-26T02:53:09.516Z,4.78
2022-08-26T02:55:36.844Z,4.75
2022-08-26T02:58:04.413Z,4.47
2022-08-26T03:00:31.652Z,4.22
2022-08-26T03:02:59.642Z,5.28
2022-08-26T03:05:26.723Z,4.43
2022-08-26T03:07:53.608Z,4.75
2022-08-26T03:10:21.782Z,5.25
2022-08-26T03:12:48.485Z,4.78
2022-08-26T03:15:19.519Z,4.85
2022-08-26T03:17:48.086Z,5.05
2022-08-26T03:20:17.527Z,5.53
2022-08-26T03:22:48.815Z,5.32
2022-08-26T03:25:16.710Z,5.05
2022-08-26T03:27:43.562Z,5.13
2022-08-26T03:30:32.265Z,4.97
2022-08-26T03:32:59.875Z,4.40
2022-08-26T03:35:27.418Z,4.85
2022-08-26T03:37:54.104Z,4.85
2022-08-26T03:40:21.359Z,4.45
2022-08-26T03:42:50.030Z,4.82
2022-08-26T03:45:19.996Z,4.65
2022-08-26T03:47:50.107Z,4.75
2022-08-26T03:50:22.671Z,4.90
2022-08-26T03:52:51.558Z,4.57
2022-08-26T03:55:26.999Z,4.35
2022-08-26T03:57:54.593Z,4.90
2022-08-26T04:00:22.216Z,4.72
2022-08-26T04:02:51.193Z,4.70
2022-08-26T04:05:22.753Z,5.13
2022-08-26T04:07:49.982Z,5.18
2022-08-26T04:10:22.134Z,5.03
2022-08-26T04:12:56.224Z,5.35
2022-08-26T04:15:26.933Z,5.10
2022-08-26T04:17:53.511Z,4.70
2022-08-26T04:20:22.522Z,5.57
2022-08-26T04:22:52.412Z,4.90
2022-08-26T04:25:22.130Z,5.10
2022-08-26T04:27:50.927Z,5.20
2022-08-26T04:30:17.758Z,4.70
2022-08-26T04:32:44.926Z,5.15
2022-08-26T04:35:11.513Z,4.95
2022-08-26T04:37:38.703Z,5.50
2022-08-26T04:40:06.534Z,5.05
2022-08-26T04:42:33.522Z,4.85
2022-08-26T04:45:01.095Z,5.38
2022-08-26T04:47:32.128Z,5.10
2022-08-26T04:49:58.991Z,5.47
2022-08-26T04:52:29.637Z,4.90
2022-08-26T04:54:59.630Z,5.20
2022-08-26T04:57:27.140Z,5.85
2022-08-26T04:59:53.995Z,4.47
2022-08-26T05:02:22.776Z,5.25
2022-08-26T05:04:53.472Z,5.07
2022-08-26T05:07:22.287Z,5.55
2022-08-26T05:09:48.932Z,5.00
2022-08-26T05:12:15.751Z,5.22
2022-08-26T05:14:43.448Z,5.63
2022-08-26T05:17:10.574Z,5.75
2022-08-26T05:19:42.943Z,5.30
2022-08-26T05:22:09.775Z,4.97
2022-08-26T05:24:39.810Z,5.15
2022-08-26T05:27:11.536Z,5.60
2022-08-26T05:29:39.721Z,5.70
2022-08-26T05:32:07.368Z,5.20
2022-08-26T05:34:34.522Z,5.90
2022-08-26T05:37:02.084Z,5.93
2022-08-26T05:39:29.525Z,5.13
2022-08-26T05:41:56.636Z,5.25
2022-08-26T05:44:24.721Z,4.95
2022-08-26T05:46:52.038Z,5.40
2022-08-26T05:49:18.699Z,5.50
2022-08-26T05:51:47.647Z,5.93
2022-08-26T05:54:22.223Z,5.55
2022-08-26T05:56:51.156Z,5.55
2022-08-26T05:59:23.911Z,5.43
2022-08-26T06:01:55.200Z,5.95
2022-08-26T06:04:23.290Z,6.18
2022-08-26T06:06:53.731Z,5.78
2022-08-26T06:09:20.692Z,5.50
2022-08-26T06:11:48.071Z,5.47
2022-08-26T06:14:14.663Z,5.63
2022-08-26T06:16:45.139Z,5.88
2022-08-26T06:19:15.114Z,5.63
2022-08-26T06:21:45.235Z,5.65
2022-08-26T06:24:32.451Z,5.65
2022-08-26T06:27:01.908Z,5.40
2022-08-26T06:29:31.207Z,5.60
2022-08-26T06:31:58.408Z,5.75
2022-08-26T06:34:30.452Z,5.18
2022-08-26T06:36:59.878Z,5.20
2022-08-26T06:39:30.610Z,4.88
2022-08-26T06:41:58.929Z,5.70
2022-08-26T06:44:25.823Z,4.80
2022-08-26T06:46:52.461Z,5.28
2022-08-26T06:49:26.599Z,4.70
2022-08-26T06:51:54.104Z,5.28
2022-08-26T06:54:22.999Z,5.18
2022-08-26T06:56:51.949Z,5.47
2022-08-26T06:59:21.941Z,5.70
2022-08-26T07:01:49.628Z,6.00
2022-08-26T07:04:20.128Z,6.07
2022-08-26T07:06:52.702Z,5.30
2022-08-26T07:09:22.055Z,5.30
2022-08-26T07:11:49.357Z,5.45
2022-08-26T07:14:16.843Z,5.40
2022-08-26T07:16:48.786Z,5.53
2022-08-26T07:19:16.664Z,5.82
2022-08-26T07:21:46.250Z,5.70
2022-08-26T07:24:14.023Z,5.53
2022-08-26T07:26:43.170Z,5.47
2022-08-26T07:29:12.485Z,5.90
2022-08-26T07:31:42.381Z,5.55
2022-08-26T07:34:10.824Z,6.00
2022-08-26T07:36:37.838Z,7.03
2022-08-26T07:39:05.389Z,5.68
2022-08-26T07:41:31.967Z,5.43
2022-08-26T07:43:58.677Z,5.03
2022-08-26T07:46:27.072Z,4.75
2022-08-26T07:48:57.720Z,4.95
2022-08-26T07:51:25.065Z,4.68
2022-08-26T07:53:54.902Z,4.97
2022-08-26T07:56:25.111Z,5.05
2022-08-26T07:58:53.574Z,4.93
2022-08-26T08:01:23.552Z,4.90
2022-08-26T08:03:53.870Z,5.05
2022-08-26T08:06:27.320Z,4.68
2022-08-26T08:08:56.138Z,4.68
2022-08-26T08:11:24.142Z,5.10
2022-08-26T08:13:56.474Z,4.50
2022-08-26T08:16:25.078Z,5.30
2022-08-26T08:18:53.412Z,5.15
2022-08-26T08:21:23.878Z,5.75
2022-08-26T08:23:55.480Z,5.43
2022-08-26T08:26:24.099Z,6.35
2022-08-26T08:28:54.718Z,5.15
2022-08-26T08:31:56.704Z,5.15
2022-08-26T08:34:16.797Z,5.35
2022-08-26T08:36:46.345Z,5.38
2022-08-26T08:39:13.489Z,4.88
2022-08-26T08:42:19.141Z,5.05
2022-08-26T08:44:52.839Z,5.53
2022-08-26T08:47:36.059Z,5.03
2022-08-26T08:50:21.879Z,4.50
2022-08-26T08:53:17.525Z,5.38
2022-08-26T08:56:06.318Z,5.72
2022-08-26T08:59:08.090Z,5.03
2022-08-26T09:02:05.490Z,5.15
2022-08-26T09:04:33.046Z,5.57
2022-08-26T09:07:02.638Z,4.78
2022-08-26T09:09:40.966Z,4.97
2022-08-26T09:12:14.892Z,5.28
2022-08-26T09:14:45.812Z,5.38
2022-08-26T09:17:22.563Z,5.05
2022-08-26T09:19:58.640Z,5.53
2022-08-26T09:22:34.544Z,4.93
2022-08-26T09:25:01.897Z,4.57
2022-08-26T09:27:42.270Z,4.75
2022-08-26T09:30:12.488Z,4.65
2022-08-26T09:32:39.895Z,4.90
2022-08-26T09:35:23.157Z,5.20
2022-08-26T09:40:36.105Z,4.70
2022-08-26T09:43:22.375Z,4.85
2022-08-26T09:45:59.506Z,4.82
2022-08-26T09:48:35.432Z,5.10
2022-08-26T09:51:07.221Z,5.25
2022-08-26T09:53:47.555Z,4.60
2022-08-26T09:56:25.932Z,4.50
2022-08-26T09:58:56.633Z,4.68
2022-08-26T10:01:23.183Z,4.20
2022-08-26T10:03:51.767Z,4.72
2022-08-26T10:06:21.112Z,4.22
2022-08-26T10:08:54.154Z,4.43
2022-08-26T10:11:39.699Z,4.43
2022-08-26T10:14:15.746Z,4.15
2022-08-26T10:16:52.714Z,4.13
2022-08-26T10:19:29.078Z,4.13
2022-08-26T10:22:04.958Z,4.20
2022-08-26T10:24:38.144Z,3.80
2022-08-26T10:27:16.485Z,4.47
2022-08-26T10:29:50.493Z,3.83
2022-08-26T10:32:32.231Z,4.10
2022-08-26T10:35:00.292Z,4.10
2022-08-26T10:37:36.431Z,4.53
2022-08-26T10:40:27.377Z,4.40
2022-08-26T10:43:11.092Z,4.32
2022-08-26T10:45:46.849Z,4.30
2022-08-26T10:48:19.096Z,4.05
2022-08-26T10:50:48.082Z,3.95
2022-08-26T10:53:17.690Z,3.85
2022-08-26T10:56:18.861Z,4.07
2022-08-26T10:58:57.718Z,3.40
2022-08-26T11:02:07.498Z,4.28
2022-08-26T11:04:56.129Z,3.83
2022-08-26T11:07:32.616Z,3.63
2022-08-26T11:10:01.880Z,3.50
2022-08-26T11:12:37.567Z,4.00
2022-08-26T11:15:06.976Z,3.50
2022-08-26T11:17:44.455Z,4.25
2022-08-26T11:20:23.778Z,3.70
2022-08-26T11:22:52.804Z,4.35
2022-08-26T11:25:30.048Z,3.80
2022-08-26T11:27:59.860Z,4.07
2022-08-26T11:30:40.381Z,3.90
2022-08-26T11:33:08.164Z,3.88
2022-08-26T11:35:34.803Z,3.63
2022-08-26T11:38:21.642Z,4.07
2022-08-26T11:41:06.915Z,4.03
2022-08-26T11:43:33.971Z,3.85
2022-08-26T11:46:02.794Z,4.10
2022-08-26T11:48:33.533Z,3.53
2022-08-26T11:51:09.670Z,3.78
2022-08-26T11:53:43.076Z,3.95
2022-08-26T11:56:15.764Z,3.80
2022-08-26T11:58:44.654Z,3.70
2022-08-26T12:01:21.796Z,3.55
2022-08-26T12:03:51.739Z,4.28
2022-08-26T12:06:46.573Z,4.28
2022-08-26T12:09:29.068Z,3.78
2022-08-26T12:12:14.263Z,3.65
2022-08-26T12:14:42.116Z,3.70
2022-08-26T12:17:26.653Z,4.60
2022-08-26T12:19:56.551Z,3.65
2022-08-26T12:22:30.516Z,3.90
2022-08-26T12:25:00.656Z,3.40
2022-08-26T12:27:28.960Z,3.22
2022-08-26T12:30:12.225Z,3.50
2022-08-26T12:32:52.859Z,3.58
2022-08-26T12:35:25.762Z,3.90
2022-08-26T12:37:54.321Z,3.60
2022-08-26T12:40:26.870Z,3.35
2022-08-26T12:43:00.437Z,3.50
2022-08-26T12:45:43.586Z,3.65
2022-08-26T12:48:24.455Z,3.30
2022-08-26T12:50:52.252Z,3.40
2022-08-26T12:53:27.993Z,2.90
2022-08-26T12:55:57.284Z,3.47
2022-08-26T12:58:23.831Z,3.08
2022-08-26T13:01:04.147Z,3.22
2022-08-26T13:03:37.528Z,3.10
2022-08-26T13:06:29.625Z,3.13
2022-08-26T13:08:57.857Z,3.70
2022-08-26T13:11:39.791Z,3.20
2022-08-26T13:14:10.942Z,4.28
2022-08-26T13:16:39.645Z,3.53
2022-08-26T13:19:10.193Z,3.40
2022-08-26T13:21:55.345Z,3.50
2022-08-26T13:24:34.269Z,3.25
2022-08-26T13:27:02.096Z,4.80
2022-08-26T13:29:29.046Z,4.25
2022-08-26T13:31:58.329Z,3.45
2022-08-26T13:34:28.147Z,4.18
2022-08-26T13:36:58.455Z,3.42
2022-08-26T13:39:28.183Z,3.00
2022-08-26T13:41:58.165Z,3.67
2022-08-26T13:44:25.335Z,6.63
2022-08-26T13:46:52.048Z,4.30
2022-08-26T13:49:18.629Z,3.78
2022-08-26T13:51:45.204Z,3.38
2022-08-26T13:54:11.840Z,3.42
2022-08-26T13:56:38.472Z,3.45
2022-08-26T13:59:06.571Z,3.55
2022-08-26T14:01:34.562Z,3.20
2022-08-26T14:04:03.125Z,3.10
2022-08-26T14:06:30.298Z,3.17
2022-08-26T14:08:57.260Z,2.83
2022-08-26T14:11:25.168Z,3.10
2022-08-26T14:13:52.394Z,3.22
2022-08-26T14:16:31.637Z,3.45
2022-08-26T14:19:01.266Z,3.40
2022-08-26T14:21:31.026Z,3.35
2022-08-26T14:24:01.156Z,3.50
2022-08-26T14:26:30.886Z,3.30
2022-08-26T14:28:58.976Z,3.35
2022-08-26T14:31:27.126Z,3.30
2022-08-26T14:33:54.772Z,3.75
2022-08-26T14:36:33.574Z,3.50
2022-08-26T14:39:04.908Z,3.00
2022-08-26T14:41:33.353Z,3.75
2022-08-26T14:44:10.347Z,3.42
2022-08-26T14:46:46.207Z,3.90
2022-08-26T14:49:13.359Z,3.50
2022-08-26T14:51:41.059Z,3.60
2022-08-26T14:54:11.908Z,3.22
2022-08-26T14:56:46.540Z,3.25
2022-08-26T14:59:19.117Z,3.58
2022-08-26T15:01:49.480Z,3.10
2022-08-26T15:04:16.629Z,3.10
2022-08-26T15:06:43.330Z,3.40
2022-08-26T15:09:10.871Z,3.20
2022-08-26T15:11:37.728Z,3.03
2022-08-26T15:14:18.937Z,3.17
2022-08-26T15:16:52.851Z,3.10
2022-08-26T15:19:20.980Z,3.00
2022-08-26T15:21:47.820Z,3.17
2022-08-26T15:24:17.000Z,2.78
2022-08-26T15:26:43.826Z,3.10
2022-08-26T15:29:10.645Z,3.20
2022-08-26T15:31:37.306Z,3.58
2022-08-26T15:34:13.343Z,3.10
2022-08-26T15:36:44.784Z,3.60
2022-08-26T15:39:12.067Z,3.28
2022-08-26T15:41:39.283Z,3.08
2022-08-26T15:44:07.462Z,3.88
2022-08-26T15:46:35.003Z,3.60
2022-08-26T15:49:03.100Z,3.78
2022-08-26T15:51:32.985Z,3.35
2022-08-26T15:54:02.671Z,3.50
2022-08-26T15:56:34.353Z,3.17
2022-08-26T15:59:02.433Z,3.17
2022-08-26T16:01:31.748Z,2.95
2022-08-26T16:04:01.752Z,3.50
2022-08-26T16:06:33.903Z,3.10
2022-08-26T16:09:00.976Z,4.47
2022-08-26T16:11:28.764Z,3.20
2022-08-26T16:13:55.717Z,3.50
2022-08-26T16:16:23.695Z,3.33
2022-08-26T16:18:50.549Z,3.28
2022-08-26T16:21:23.238Z,3.00
2022-08-26T16:23:50.931Z,3.28
2022-08-26T16:26:21.622Z,3.70
2022-08-26T16:28:48.205Z,3.17
2022-08-26T16:31:15.518Z,3.50
2022-08-26T16:33:43.535Z,3.10
2022-08-26T16:36:16.658Z,2.97
2022-08-26T16:38:50.012Z,3.30
2022-08-26T16:41:29.268Z,3.08
2022-08-26T16:43:58.697Z,3.92
2022-08-26T16:46:26.293Z,3.33
2022-08-26T16:48:58.699Z,3.20
2022-08-26T16:51:27.829Z,3.50
2022-08-26T16:53:59.291Z,3.35
2022-08-26T16:56:33.440Z,5.10
2022-08-26T16:59:01.753Z,4.93
2022-08-26T17:01:31.367Z,3.35
2022-08-26T17:04:01.230Z,3.30
2022-08-26T17:06:28.009Z,3.10
2022-08-26T17:08:54.597Z,3.00
2022-08-26T17:11:21.179Z,2.90
2022-08-26T17:13:47.792Z,2.95
2022-08-26T17:16:15.266Z,2.70
2022-08-26T17:18:41.977Z,3.13
2022-08-26T17:21:11.291Z,3.00
2022-08-26T17:23:41.198Z,2.85
2022-08-26T17:26:09.142Z,2.70
2022-08-26T17:28:36.048Z,2.80
2022-08-26T17:31:03.005Z,3.83
2022-08-26T17:33:30.183Z,3.38
2022-08-26T17:35:59.280Z,3.03
2022-08-26T17:38:29.092Z,3.72
2022-08-26T17:40:59.672Z,3.50
2022-08-26T17:43:26.782Z,3.33
2022-08-26T17:46:07.169Z,4.05
2022-08-26T17:48:35.540Z,3.25
2022-08-26T17:51:07.902Z,3.10
2022-08-26T17:53:34.435Z,3.35
2022-08-26T17:56:01.494Z,3.50
2022-08-26T17:58:28.887Z,3.42
2022-08-26T18:00:55.715Z,3.90
2022-08-26T18:03:22.929Z,3.50
2022-08-26T18:05:53.011Z,3.70
2022-08-26T18:08:20.190Z,3.70
2022-08-26T18:10:47.442Z,4.03
2022-08-26T18:13:17.470Z,3.22
2022-08-26T18:15:46.305Z,3.55
2022-08-26T18:18:14.555Z,7.25
2022-08-26T18:20:43.325Z,3.50
2022-08-26T18:23:10.667Z,4.80
2022-08-26T18:25:42.050Z,4.13
2022-08-26T18:28:09.363Z,4.18
2022-08-26T18:30:36.288Z,5.20
2022-08-26T18:33:03.123Z,4.40
2022-08-26T18:35:32.298Z,3.10
2022-08-26T18:38:10.486Z,3.63
2022-08-26T18:40:39.882Z,3.00
2022-08-26T18:43:06.562Z,3.47
2022-08-26T18:45:33.333Z,3.40
2022-08-26T18:48:01.829Z,3.35
2022-08-26T18:50:28.760Z,3.25
2022-08-26T18:52:55.335Z,3.40
2022-08-26T18:55:22.122Z,3.33
2022-08-26T18:57:49.551Z,3.30
2022-08-26T19:00:18.789Z,3.25
2022-08-26T19:02:51.838Z,3.25
2022-08-26T19:05:19.345Z,3.13
2022-08-26T19:07:46.141Z,3.70
2022-08-26T19:10:14.681Z,3.85
2022-08-26T19:12:41.260Z,3.55
2022-08-26T19:15:08.099Z,3.80
2022-08-26T19:17:34.651Z,3.55
2022-08-26T19:20:03.815Z,3.38
2022-08-26T19:22:32.551Z,3.28
2022-08-26T19:24:59.102Z,3.70
2022-08-26T19:27:25.827Z,3.50
2022-08-26T19:29:52.504Z,3.53
2022-08-26T19:32:24.186Z,3.30
2022-08-26T19:34:54.426Z,3.97
2022-08-26T19:37:21.752Z,3.58
2022-08-26T19:39:48.708Z,4.55
2022-08-26T19:42:16.490Z,3.50
2022-08-26T19:45:02.816Z,3.65
2022-08-26T19:47:29.510Z,3.58
2022-08-26T19:49:56.660Z,3.97
2022-08-26T19:52:24.416Z,3.80
2022-08-26T19:54:56.601Z,3.50
2022-08-26T19:57:23.159Z,3.42
2022-08-26T19:59:49.835Z,3.50
2022-08-26T20:02:16.771Z,3.80
2022-08-26T20:04:44.427Z,3.90
2022-08-26T20:07:18.089Z,3.70
2022-08-26T20:09:46.366Z,3.60
2022-08-26T20:12:12.944Z,4.07
2022-08-26T20:14:39.530Z,3.45
2022-08-26T20:17:06.262Z,3.30
2022-08-26T20:19:51.961Z,3.35
2022-08-26T20:22:19.490Z,3.47
2022-08-26T20:24:47.177Z,5.88
2022-08-26T20:27:15.452Z,3.25
2022-08-26T20:29:43.112Z,3.40
2022-08-26T20:32:12.111Z,3.22
2022-08-26T20:34:40.014Z,3.60
2022-08-26T20:37:08.452Z,3.30
2022-08-26T20:39:35.188Z,3.33
2022-08-26T20:42:05.718Z,3.45
2022-08-26T20:44:47.351Z,3.33
2022-08-26T20:47:21.712Z,3.60
2022-08-26T20:49:48.327Z,3.72
2022-08-26T20:52:19.766Z,3.60
2022-08-26T20:54:46.357Z,3.65
2022-08-26T20:57:14.472Z,3.65
2022-08-26T20:59:41.092Z,3.50
2022-08-26T21:02:08.027Z,3.65
2022-08-26T21:04:37.613Z,3.60
2022-08-26T21:07:04.462Z,3.67
2022-08-26T21:09:32.627Z,3.60
2022-08-26T21:11:59.261Z,3.90
2022-08-26T21:14:26.184Z,3.50
2022-08-26T21:16:53.389Z,3.97
2022-08-26T21:19:20.270Z,3.63
2022-08-26T21:21:48.301Z,3.70
2022-08-26T21:24:15.743Z,3.67
2022-08-26T21:26:42.652Z,3.72
2022-08-26T21:29:09.974Z,3.70
2022-08-26T21:31:45.487Z,3.40
2022-08-26T21:34:14.003Z,3.72
2022-08-26T21:36:40.644Z,3.40
2022-08-26T21:39:11.503Z,3.78
2022-08-26T21:41:39.762Z,3.80
2022-08-26T21:44:08.037Z,3.47
2022-08-26T21:46:37.334Z,3.58
2022-08-26T21:49:07.607Z,3.65
2022-08-26T21:51:40.239Z,3.70
2022-08-26T21:54:11.091Z,3.85
2022-08-26T21:56:42.197Z,3.10
2022-08-26T21:59:09.363Z,3.13
2022-08-26T22:01:38.325Z,3.53
2022-08-26T22:04:09.247Z,3.30
2022-08-26T22:06:41.889Z,3.35
2022-08-26T22:09:12.587Z,3.47
2022-08-26T22:11:39.514Z,3.45
2022-08-26T22:14:06.193Z,3.22
2022-08-26T22:16:32.917Z,3.28
2022-08-26T22:18:59.828Z,3.40
2022-08-26T22:21:28.432Z,3.60
2022-08-26T22:23:58.097Z,3.50
2022-08-26T22:26:29.091Z,3.30
2022-08-26T22:28:58.840Z,3.20
2022-08-26T22:31:37.505Z,3.45
2022-08-26T22:34:10.616Z,3.25
2022-08-26T22:36:43.299Z,3.15
2022-08-26T22:39:17.411Z,3.38
2022-08-26T22:41:45.024Z,3.38
2022-08-26T22:44:12.540Z,3.47
2022-08-26T22:46:40.664Z,3.33
2022-08-26T22:49:11.129Z,3.20
2022-08-26T22:51:38.125Z,3.30
2022-08-26T22:54:05.852Z,3.28
2022-08-26T22:56:32.484Z,3.38
2022-08-26T22:58:59.093Z,3.15
2022-08-26T23:01:25.963Z,3.83
2022-08-26T23:03:52.846Z,3.33
2022-08-26T23:06:19.480Z,3.45
2022-08-26T23:08:47.085Z,3.28
2022-08-26T23:11:15.012Z,3.70
2022-08-26T23:13:44.991Z,3.58
2022-08-26T23:16:14.493Z,3.72
2022-08-26T23:18:42.188Z,3.70
2022-08-26T23:21:12.510Z,3.75
2022-08-26T23:23:39.299Z,4.25
2022-08-26T23:26:07.821Z,3.80
2022-08-26T23:28:36.468Z,3.47
2022-08-26T23:31:03.345Z,3.50
2022-08-26T23:33:49.990Z,3.78
2022-08-26T23:36:18.144Z,3.63
2022-08-26T23:38:48.152Z,3.75
2022-08-26T23:41:20.141Z,4.00
2022-08-26T23:43:46.750Z,3.70
2022-08-26T23:46:16.499Z,3.60
2022-08-26T23:48:46.293Z,3.85
2022-08-26T23:51:31.742Z,3.90
2022-08-26T23:53:58.436Z,3.67
2022-08-26T23:56:25.367Z,3.50
2022-08-26T23:58:53.704Z,3.40
